Llanybydder, United Kingdom
Current Conditions -  °F | °C
As of 12:50 PM on Sunday 21 Dec 2014 (Local Time) from EGOP Reporting Station
Broken Clouds Broken Clouds  
Wind Chill: 52°   Ceiling: 1800
Heat Index: 52°   Visibility: 5mi
Dew Point: 50°   Wind: 29mph
Humidity: 94%   Direction: 230°SW
Pressure: 30.27"   Gusts: NA
Location:  52.07°N, 4.16°W
Report Text: EGOP 211250Z AUTO 23025KT 8000 // SCT013/// BKN018/// 11/10 Q1025
Loading
Personal Weather Stations






























Interactive Weather Map New forecast layout! Learn more

10-Day Weather Forecast

Advertisements
Track Severe Weather on mobile